Time,TemperatureF,DewpointF,PressureIn,WindDirection,WindDirectionDegrees,WindSpeedMPH,WindSpeedGustMPH,Humidity,HourlyPrecipIn,Conditions,Clouds,dailyrainin,SoftwareType,DateUTC
2013-02-14 00:04:00,35.9,32.0,29.96,NNE,15,12.0,17.0,84,0.00,,,0.00,weatherlink.com 1.10,2013-02-14 05:04:00,
2013-02-14 00:19:00,35.8,31.0,29.97,NNW,335,7.0,18.0,84,0.00,,,0.00,weatherlink.com 1.10,2013-02-14 05:19:00,
2013-02-14 00:34:00,35.7,31.0,29.97,NNE,17,12.0,17.0,84,0.00,,,0.00,weatherlink.com 1.10,2013-02-14 05:34:00,
2013-02-14 00:50:00,35.7,31.0,29.98,NNW,340,8.0,17.0,84,0.00,,,0.00,weatherlink.com 1.10,2013-02-14 05:50:00,
2013-02-14 01:05:00,35.6,31.0,29.98,NNE,20,8.0,22.0,83,0.00,,,0.00,weatherlink.com 1.10,2013-02-14 06:05:00,
2013-02-14 01:20:00,35.6,31.0,29.98,NNW,343,12.0,20.0,82,0.00,,,0.00,weatherlink.com 1.10,2013-02-14 06:20:00,
2013-02-14 01:35:00,35.6,31.0,29.98,North,1,10.0,18.0,82,0.00,,,0.00,weatherlink.com 1.10,2013-02-14 06:35:00,
2013-02-14 01:50:00,35.6,31.0,29.98,NNW,347,15.0,18.0,82,0.00,,,0.00,weatherlink.com 1.10,2013-02-14 06:50:00,
2013-02-14 02:05:00,35.5,30.0,29.98,North,355,15.0,19.0,81,0.00,,,0.00,weatherlink.com 1.10,2013-02-14 07:05:00,
2013-02-14 02:20:00,35.4,30.0,29.99,NNE,12,12.0,13.0,81,0.00,,,0.00,weatherlink.com 1.10,2013-02-14 07:20:00,
2013-02-14 02:35:00,35.3,30.0,30.00,North,6,7.0,16.0,80,0.00,,,0.00,weatherlink.com 1.10,2013-02-14 07:35:00,
2013-02-14 02:50:00,35.5,30.0,30.00,NNE,18,5.0,13.0,80,0.00,,,0.00,weatherlink.com 1.10,2013-02-14 07:50:00,
2013-02-14 03:05:00,35.3,29.0,30.00,NNW,330,7.0,14.0,79,0.00,,,0.00,weatherlink.com 1.10,2013-02-14 08:05:00,
2013-02-14 03:20:00,35.3,30.0,30.01,NW,324,5.0,16.0,80,0.00,,,0.00,weatherlink.com 1.10,2013-02-14 08:20:00,
2013-02-14 03:35:00,35.2,29.0,30.01,North,353,9.0,19.0,79,0.00,,,0.00,weatherlink.com 1.10,2013-02-14 08:35:00,
2013-02-14 03:50:00,35.2,29.0,30.01,North,1,10.0,17.0,79,0.00,,,0.00,weatherlink.com 1.10,2013-02-14 08:50:00,
2013-02-14 04:05:00,35.0,29.0,30.01,NNW,344,11.0,20.0,80,0.00,,,0.00,weatherlink.com 1.10,2013-02-14 09:05:00,
2013-02-14 04:20:00,34.9,29.0,30.02,North,6,13.0,20.0,78,0.00,,,0.00,weatherlink.com 1.10,2013-02-14 09:20:00,
2013-02-14 04:35:00,34.7,28.0,30.01,North,358,14.0,22.0,76,0.00,,,0.00,weatherlink.com 1.10,2013-02-14 09:35:00,
2013-02-14 04:50:00,34.7,28.0,30.02,North,354,10.0,21.0,77,0.00,,,0.00,weatherlink.com 1.10,2013-02-14 09:50:00,
2013-02-14 05:05:00,34.5,28.0,30.02,North,8,11.0,18.0,77,0.00,,,0.00,weatherlink.com 1.10,2013-02-14 10:05:00,
2013-02-14 05:21:00,34.4,28.0,30.02,North,351,10.0,17.0,77,0.00,,,0.00,weatherlink.com 1.10,2013-02-14 10:21:00,
2013-02-14 05:35:00,34.4,28.0,30.02,NNE,19,10.0,13.0,77,0.00,,,0.00,weatherlink.com 1.10,2013-02-14 10:35:00,
2013-02-14 05:50:00,34.3,28.0,30.02,NNE,29,10.0,15.0,77,0.00,,,0.00,weatherlink.com 1.10,2013-02-14 10:50:00,
2013-02-14 06:05:00,34.3,28.0,30.02,North,8,11.0,14.0,78,0.00,,,0.00,weatherlink.com 1.10,2013-02-14 11:05:00,
2013-02-14 06:20:00,34.1,28.0,30.03,North,350,6.0,15.0,78,0.00,,,0.00,weatherlink.com 1.10,2013-02-14 11:20:00,
2013-02-14 06:35:00,34.2,28.0,30.04,NNE,14,10.0,12.0,78,0.00,,,0.00,weatherlink.com 1.10,2013-02-14 11:35:00,
2013-02-14 06:50:00,33.9,27.0,30.04,NNW,347,9.0,13.0,76,0.00,,,0.00,weatherlink.com 1.10,2013-02-14 11:50:00,
2013-02-14 07:05:00,33.8,27.0,30.05,NNW,344,7.0,10.0,76,0.00,,,0.00,weatherlink.com 1.10,2013-02-14 12:05:00,
2013-02-14 07:20:00,33.7,27.0,30.05,North,1,8.0,12.0,76,0.00,,,0.00,weatherlink.com 1.10,2013-02-14 12:20:00,
2013-02-14 07:35:00,33.6,26.0,30.06,NNE,28,3.0,11.0,75,0.00,,,0.00,weatherlink.com 1.10,2013-02-14 12:35:00,
2013-02-14 07:50:00,33.7,27.0,30.08,NNE,12,5.0,8.0,75,0.00,,,0.00,weatherlink.com 1.10,2013-02-14 12:50:00,
2013-02-14 08:05:00,33.7,27.0,30.09,North,352,5.0,10.0,75,0.00,,,0.00,weatherlink.com 1.10,2013-02-14 13:05:00,
2013-02-14 08:20:00,33.7,27.0,30.09,NNE,26,2.0,4.0,75,0.00,,,0.00,weatherlink.com 1.10,2013-02-14 13:20:00,
2013-02-14 08:36:00,35.0,28.0,30.09,ENE,68,3.0,6.0,75,0.00,,,0.00,weatherlink.com 1.10,2013-02-14 13:36:00,
2013-02-14 08:51:00,35.1,27.0,30.09,NNW,331,6.0,10.0,73,0.00,,,0.00,weatherlink.com 1.10,2013-02-14 13:51:00,
2013-02-14 09:06:00,35.9,27.0,30.10,NNW,335,4.0,8.0,71,0.00,,,0.00,weatherlink.com 1.10,2013-02-14 14:06:00,
2013-02-14 09:21:00,35.8,27.0,30.10,NNW,343,3.0,9.0,71,0.00,,,0.00,weatherlink.com 1.10,2013-02-14 14:21:00,
2013-02-14 09:36:00,36.5,28.0,30.10,NNE,28,0.0,6.0,70,0.00,,,0.00,weatherlink.com 1.10,2013-02-14 14:36:00,
2013-02-14 09:51:00,37.7,28.0,30.09,NNW,333,0.0,5.0,67,0.00,,,0.00,weatherlink.com 1.10,2013-02-14 14:51:00,
2013-02-14 10:06:00,37.7,28.0,30.11,NNE,15,5.0,8.0,67,0.00,,,0.00,weatherlink.com 1.10,2013-02-14 15:06:00,
2013-02-14 10:21:00,38.1,28.0,30.11,NNW,339,3.0,9.0,66,0.00,,,0.00,weatherlink.com 1.10,2013-02-14 15:21:00,
2013-02-14 10:36:00,38.6,28.0,30.10,NNW,338,4.0,10.0,66,0.00,,,0.00,weatherlink.com 1.10,2013-02-14 15:36:00,
2013-02-14 10:51:00,39.4,28.0,30.08,North,358,5.0,11.0,65,0.00,,,0.00,weatherlink.com 1.10,2013-02-14 15:51:00,
2013-02-14 11:06:00,40.3,28.0,30.07,NW,309,3.0,10.0,62,0.00,,,0.00,weatherlink.com 1.10,2013-02-14 16:06:00,
2013-02-14 11:21:00,41.0,27.0,30.07,NW,323,2.0,10.0,59,0.00,,,0.00,weatherlink.com 1.10,2013-02-14 16:21:00,
2013-02-14 11:36:00,42.5,28.0,30.08,WNW,293,4.0,8.0,57,0.00,,,0.00,weatherlink.com 1.10,2013-02-14 16:36:00,
2013-02-14 11:51:00,43.6,29.0,30.08,NE,49,4.0,7.0,56,0.00,,,0.00,weatherlink.com 1.10,2013-02-14 16:51:00,
2013-02-14 12:06:00,43.7,27.0,30.08,NW,323,2.0,8.0,53,0.00,,,0.00,weatherlink.com 1.10,2013-02-14 17:06:00,
2013-02-14 12:21:00,44.8,28.0,30.07,NW,321,4.0,9.0,53,0.00,,,0.00,weatherlink.com 1.10,2013-02-14 17:21:00,
2013-02-14 12:36:00,46.3,28.0,30.07,ESE,121,1.0,2.0,49,0.00,,,0.00,weatherlink.com 1.10,2013-02-14 17:36:00,
2013-02-14 12:51:00,47.3,28.0,30.06,WNW,288,0.0,6.0,48,0.00,,,0.00,weatherlink.com 1.10,2013-02-14 17:51:00,
2013-02-14 13:06:00,48.4,28.0,30.05,NE,35,2.0,4.0,45,0.00,,,0.00,weatherlink.com 1.10,2013-02-14 18:06:00,
2013-02-14 13:21:00,49.2,27.0,30.03,SSE,159,0.0,3.0,42,0.00,,,0.00,weatherlink.com 1.10,2013-02-14 18:21:00,
2013-02-14 13:36:00,49.1,27.0,30.02,NNE,15,8.0,10.0,42,0.00,,,0.00,weatherlink.com 1.10,2013-02-14 18:36:00,
2013-02-14 13:51:00,49.5,27.0,30.01,North,349,4.0,8.0,42,0.00,,,0.00,weatherlink.com 1.10,2013-02-14 18:51:00,
2013-02-14 14:06:00,49.9,27.0,30.00,NNW,341,6.0,8.0,42,0.00,,,0.00,weatherlink.com 1.10,2013-02-14 19:06:00,
2013-02-14 14:21:00,50.2,28.0,30.00,NNW,343,9.0,13.0,43,0.00,,,0.00,weatherlink.com 1.10,2013-02-14 19:21:00,
2013-02-14 14:36:00,51.1,28.0,30.02,North,354,8.0,12.0,41,0.00,,,0.00,weatherlink.com 1.10,2013-02-14 19:36:00,
2013-02-14 14:51:00,51.5,29.0,30.03,NNW,342,7.0,13.0,42,0.00,,,0.00,weatherlink.com 1.10,2013-02-14 19:51:00,
2013-02-14 15:06:00,51.4,29.0,30.02,NNW,333,4.0,12.0,42,0.00,,,0.00,weatherlink.com 1.10,2013-02-14 20:06:00,
2013-02-14 15:21:00,51.4,29.0,30.01,North,350,7.0,13.0,42,0.00,,,0.00,weatherlink.com 1.10,2013-02-14 20:21:00,
2013-02-14 15:36:00,51.6,29.0,30.02,North,3,9.0,13.0,42,0.00,,,0.00,weatherlink.com 1.10,2013-02-14 20:36:00,
2013-02-14 15:51:00,51.0,30.0,30.02,NNW,345,7.0,13.0,44,0.00,,,0.00,weatherlink.com 1.10,2013-02-14 20:51:00,
2013-02-14 16:06:00,51.4,29.0,30.02,North,356,7.0,12.0,43,0.00,,,0.00,weatherlink.com 1.10,2013-02-14 21:06:00,
2013-02-14 16:21:00,51.3,28.0,30.02,NNW,336,8.0,12.0,41,0.00,,,0.00,weatherlink.com 1.10,2013-02-14 21:21:00,
2013-02-14 16:37:00,51.2,27.0,30.03,NNW,341,7.0,11.0,40,0.00,,,0.00,weatherlink.com 1.10,2013-02-14 21:37:00,
2013-02-14 16:52:00,51.4,28.0,30.03,NNE,30,7.0,15.0,40,0.00,,,0.00,weatherlink.com 1.10,2013-02-14 21:52:00,
2013-02-14 17:07:00,51.4,29.0,30.03,North,6,7.0,9.0,42,0.00,,,0.00,weatherlink.com 1.10,2013-02-14 22:07:00,
2013-02-14 17:22:00,51.0,28.0,30.03,NW,321,6.0,14.0,41,0.00,,,0.00,weatherlink.com 1.10,2013-02-14 22:22:00,
2013-02-14 17:37:00,50.5,28.0,30.03,NW,319,6.0,14.0,42,0.00,,,0.00,weatherlink.com 1.10,2013-02-14 22:37:00,
2013-02-14 17:52:00,49.9,28.0,30.03,NNE,20,7.0,12.0,43,0.00,,,0.00,weatherlink.com 1.10,2013-02-14 22:52:00,
2013-02-14 18:07:00,49.3,29.0,30.04,NNE,20,13.0,14.0,45,0.00,,,0.00,weatherlink.com 1.10,2013-02-14 23:07:00,
2013-02-14 18:22:00,48.4,28.0,30.04,NNE,21,10.0,13.0,46,0.00,,,0.00,weatherlink.com 1.10,2013-02-14 23:22:00,
2013-02-14 18:37:00,47.3,30.0,30.04,North,352,5.0,9.0,51,0.00,,,0.00,weatherlink.com 1.10,2013-02-14 23:37:00,
2013-02-14 18:52:00,46.7,30.0,30.05,North,355,7.0,12.0,52,0.00,,,0.00,weatherlink.com 1.10,2013-02-14 23:52:00,
2013-02-14 19:07:00,46.4,29.0,30.05,North,356,8.0,11.0,51,0.00,,,0.00,weatherlink.com 1.10,2013-02-15 00:07:00,
2013-02-14 19:22:00,45.9,30.0,30.05,North,349,6.0,10.0,54,0.00,,,0.00,weatherlink.com 1.10,2013-02-15 00:22:00,
2013-02-14 19:37:00,44.8,31.0,30.06,NNW,337,0.0,5.0,58,0.00,,,0.00,weatherlink.com 1.10,2013-02-15 00:37:00,
2013-02-14 19:52:00,43.7,31.0,30.06,NNW,342,1.0,3.0,61,0.00,,,0.00,weatherlink.com 1.10,2013-02-15 00:52:00,
2013-02-14 20:07:00,42.7,32.0,30.06,NNE,19,0.0,2.0,65,0.00,,,0.00,weatherlink.com 1.10,2013-02-15 01:07:00,
2013-02-14 20:22:00,40.0,32.0,30.07,SW,214,0.0,2.0,74,0.00,,,0.00,weatherlink.com 1.10,2013-02-15 01:22:00,
2013-02-14 20:37:00,39.0,33.0,30.07,NNW,344,1.0,2.0,78,0.00,,,0.00,weatherlink.com 1.10,2013-02-15 01:37:00,
2013-02-14 20:52:00,38.3,32.0,30.06,NW,323,0.0,1.0,78,0.00,,,0.00,weatherlink.com 1.10,2013-02-15 01:52:00,
2013-02-14 21:07:00,37.9,32.0,30.07,NNW,333,0.0,3.0,80,0.00,,,0.00,weatherlink.com 1.10,2013-02-15 02:07:00,
2013-02-14 21:22:00,36.6,31.0,30.07,SSW,210,2.0,2.0,81,0.00,,,0.00,weatherlink.com 1.10,2013-02-15 02:22:00,
2013-02-14 21:37:00,35.8,31.0,30.07,South,181,0.0,2.0,84,0.00,,,0.00,weatherlink.com 1.10,2013-02-15 02:37:00,
2013-02-14 21:52:00,35.3,31.0,30.08,SSE,163,0.0,2.0,85,0.00,,,0.00,weatherlink.com 1.10,2013-02-15 02:52:00,
2013-02-14 22:07:00,34.7,31.0,30.09,SE,134,1.0,3.0,85,0.00,,,0.00,weatherlink.com 1.10,2013-02-15 03:07:00,
2013-02-14 22:22:00,34.2,30.0,30.09,SSE,155,0.0,1.0,85,0.00,,,0.00,weatherlink.com 1.10,2013-02-15 03:22:00,
2013-02-14 22:37:00,33.5,30.0,30.09,South,169,0.0,1.0,87,0.00,,,0.00,weatherlink.com 1.10,2013-02-15 03:37:00,
2013-02-14 22:52:00,32.6,29.0,30.10,South,169,0.0,0.0,87,0.00,,,0.00,weatherlink.com 1.10,2013-02-15 03:52:00,
2013-02-14 23:07:00,33.6,31.0,30.09,NNE,26,1.0,3.0,90,0.00,,,0.00,weatherlink.com 1.10,2013-02-15 04:07:00,
2013-02-14 23:22:00,33.2,30.0,30.10,SW,215,0.0,2.0,88,0.00,,,0.00,weatherlink.com 1.10,2013-02-15 04:22:00,
2013-02-14 23:37:00,32.0,29.0,30.10,SSW,201,0.0,2.0,89,0.00,,,0.00,weatherlink.com 1.10,2013-02-15 04:37:00,
2013-02-14 23:52:00,31.2,29.0,30.11,SW,217,0.0,1.0,90,0.00,,,0.00,weatherlink.com 1.10,2013-02-15 04:52:00,